River Heights, Utah
Current Conditions -  °F | °C
As of 8:51 AM on Sunday 21 Dec 2014 (Local Time) from KLGU Reporting Station
Light Rain Light Rain  
Wind Chill: 40°   Ceiling: 3200
Heat Index: 40°   Visibility: 6mi
Dew Point: 36°   Wind: 3mph
Humidity: 86%   Direction: 150°SSE
Pressure: 29.9"   Gusts: NA
Location:  41.6898°N, 111.643°W
Report Text: KLGU 211551Z AUTO 15003KT 6SM -RA BR OVC032 04/02 A2990 RMK AO2 SLP122 P0005 T00440022
Loading
Personal Weather Stations






























Interactive Weather Map New forecast layout! Learn more

10-Day Weather Forecast

Advertisements
Track Severe Weather on mobile